Time;durP1;ratioP1;P1;durP2;ratioP2;P2;SDS_P1;SDS_P2;PMS_P1;PMS_P2;Temp;Humidity;BMP_temperature;BMP_pressure;BME280_temperature;BME280_humidity;BME280_pressure;Samples;Min_cycle;Max_cycle;Signal;HPM_P1;HPM_P2
2022/08/18 00:00:31;;;;;;;1.40;0.90;;;20.20;1.00;;;;;;5096101;28;20532;-69
2022/08/18 00:03:04;;;;;;;4.07;1.00;;;20.10;1.00;;;;;;5094051;28;20887;-69
2022/08/18 00:05:31;;;;;;;2.30;1.00;;;20.00;1.00;;;;;;5095222;28;20452;-69
2022/08/18 00:07:58;;;;;;;1.13;0.90;;;20.00;1.00;;;;;;5094728;28;20449;-69
2022/08/18 00:10:25;;;;;;;1.60;0.90;;;20.00;1.00;;;;;;5096116;28;20564;-69
2022/08/18 00:12:53;;;;;;;1.80;0.93;;;19.90;4.00;;;;;;5093082;28;21012;-69
2022/08/18 00:15:21;;;;;;;1.43;0.97;;;19.80;1.00;;;;;;5095418;28;20511;-69
2022/08/18 00:17:49;;;;;;;1.60;1.00;;;19.90;1.00;;;;;;5093962;28;20493;-69
2022/08/18 00:20:19;;;;;;;1.30;0.97;;;20.00;3.30;;;;;;5095694;28;20507;-69
2022/08/18 00:22:46;;;;;;;2.73;1.10;;;20.00;1.00;;;;;;5093665;28;20519;-69
2022/08/18 00:25:15;;;;;;;1.37;1.00;;;19.90;1.00;;;;;;5095363;28;20506;-69
2022/08/18 00:27:42;;;;;;;1.33;0.87;;;19.80;1.00;;;;;;5094215;28;20473;-69
2022/08/18 00:30:11;;;;;;;1.20;0.90;;;19.80;1.00;;;;;;5096153;28;20503;-69
2022/08/18 00:32:41;;;;;;;2.03;1.03;;;19.90;1.00;;;;;;5093375;28;20539;-69
2022/08/18 00:35:13;;;;;;;1.03;0.90;;;19.90;1.00;;;;;;5096026;28;20470;-69
2022/08/18 00:37:40;;;;;;;1.60;1.10;;;19.90;1.00;;;;;;5095469;28;20456;-69
2022/08/18 00:40:09;;;;;;;1.63;1.03;;;19.80;1.00;;;;;;5096384;28;20452;-69
2022/08/18 00:42:43;;;;;;;1.10;0.93;;;19.90;1.00;;;;;;5094152;28;20548;-69
2022/08/18 00:45:14;;;;;;;1.07;0.90;;;19.90;1.00;;;;;;5095719;28;20438;-70
2022/08/18 00:47:41;;;;;;;1.40;1.00;;;19.90;1.00;;;;;;5094002;28;20552;-69
2022/08/18 00:50:15;;;;;;;1.80;0.87;;;19.90;1.00;;;;;;5095988;28;20481;-69
2022/08/18 00:52:44;;;;;;;1.47;1.00;;;19.90;1.00;;;;;;5094019;28;20485;-69
2022/08/18 00:55:11;;;;;;;1.60;1.00;;;19.90;1.00;;;;;;5095896;28;20532;-69
2022/08/18 00:57:38;;;;;;;1.20;1.00;;;19.80;1.00;;;;;;5095522;28;20457;-69
2022/08/18 01:00:11;;;;;;;1.40;1.00;;;19.80;1.00;;;;;;5099634;28;20449;-69
2022/08/18 01:02:42;;;;;;;1.73;0.87;;;19.80;1.00;;;;;;5098135;28;20551;-70
2022/08/18 01:05:15;;;;;;;1.00;0.80;;;19.80;1.00;;;;;;5098970;28;20762;-69
2022/08/18 01:07:45;;;;;;;1.40;0.90;;;19.80;1.00;;;;;;5097806;28;20539;-69
2022/08/18 01:10:15;;;;;;;1.87;1.10;;;19.70;1.00;;;;;;5105591;28;20476;-69
2022/08/18 01:12:42;;;;;;;1.20;0.90;;;19.70;1.00;;;;;;5118368;28;20533;-69
2022/08/18 01:15:12;;;;;;;1.27;0.90;;;19.70;1.00;;;;;;5119878;28;20863;-69
2022/08/18 01:23:31;;;;;;;1.30;0.80;;;19.90;1.00;;;;;;5054500;28;20960;-69
2022/08/18 01:26:00;;;;;;;1.40;0.93;;;19.90;1.00;;;;;;5094824;28;21179;-69
2022/08/18 01:28:27;;;;;;;1.03;0.87;;;19.80;1.00;;;;;;5119953;28;20447;-69
2022/08/18 01:30:57;;;;;;;2.73;1.00;;;19.80;1.00;;;;;;5119814;28;20456;-70
2022/08/18 01:33:31;;;;;;;1.20;0.90;;;19.80;1.00;;;;;;5118049;28;20574;-69
2022/08/18 01:36:00;;;;;;;1.77;1.13;;;19.80;1.00;;;;;;5119269;28;20536;-69
2022/08/18 01:38:27;;;;;;;2.07;1.00;;;19.80;1.00;;;;;;5117558;28;20825;-69
2022/08/18 01:40:55;;;;;;;1.40;1.00;;;19.80;1.00;;;;;;5119494;28;20453;-70
2022/08/18 01:43:23;;;;;;;1.13;0.90;;;19.80;1.00;;;;;;5117870;28;20819;-69
2022/08/18 01:45:51;;;;;;;1.33;0.93;;;19.80;1.00;;;;;;5119211;28;20448;-69
2022/08/18 01:48:18;;;;;;;1.70;0.80;;;19.80;1.00;;;;;;5116950;28;20448;-69
2022/08/18 01:50:48;;;;;;;1.70;1.07;;;20.00;1.00;;;;;;5119181;28;20444;-69
2022/08/18 01:53:16;;;;;;;1.40;0.97;;;20.10;1.00;;;;;;5119128;28;20488;-70
2022/08/18 01:55:44;;;;;;;1.30;1.00;;;20.10;1.00;;;;;;5119046;28;20502;-69
2022/08/18 01:58:12;;;;;;;1.30;0.90;;;20.20;1.00;;;;;;5117442;28;20452;-69
2022/08/18 02:00:40;;;;;;;1.40;0.90;;;20.20;1.00;;;;;;5118887;28;20448;-69
2022/08/18 02:03:11;;;;;;;1.10;0.90;;;20.20;1.00;;;;;;5117619;28;20459;-69
2022/08/18 02:05:45;;;;;;;1.77;1.00;;;20.10;1.00;;;;;;5118882;28;20475;-69
2022/08/18 02:08:14;;;;;;;1.30;1.10;;;20.10;1.00;;;;;;5116571;28;20540;-70
2022/08/18 02:10:41;;;;;;;1.33;1.00;;;20.10;1.00;;;;;;5118682;28;20935;-70
2022/08/18 02:13:08;;;;;;;1.20;0.90;;;20.10;1.00;;;;;;5116968;28;20634;-69
2022/08/18 02:15:37;;;;;;;1.20;0.97;;;20.10;1.00;;;;;;5118734;28;20498;-69
2022/08/18 02:18:04;;;;;;;1.30;1.00;;;20.10;1.00;;;;;;5116635;28;20488;-69
2022/08/18 02:20:31;;;;;;;1.10;0.90;;;20.20;1.00;;;;;;5118670;28;20448;-69
2022/08/18 02:23:01;;;;;;;1.40;1.00;;;20.30;1.00;;;;;;5116557;28;20496;-70
2022/08/18 02:25:28;;;;;;;1.27;0.90;;;20.30;1.00;;;;;;5118699;28;20475;-69
2022/08/18 02:27:56;;;;;;;1.87;0.90;;;20.10;1.00;;;;;;5116280;28;20814;-69
2022/08/18 02:30:23;;;;;;;1.27;0.90;;;20.00;1.00;;;;;;5118734;28;20444;-69
2022/08/18 02:32:52;;;;;;;1.27;1.00;;;20.10;1.00;;;;;;5116161;28;20485;-70
2022/08/18 02:35:19;;;;;;;1.70;1.00;;;20.00;1.00;;;;;;5117969;28;20919;-69
2022/08/18 02:37:46;;;;;;;2.13;0.90;;;20.00;1.00;;;;;;5117032;28;20445;-69
2022/08/18 02:40:14;;;;;;;1.30;1.00;;;20.00;1.00;;;;;;5118388;28;20745;-69
2022/08/18 02:42:42;;;;;;;1.20;1.00;;;20.10;1.00;;;;;;5116423;28;20448;-69
2022/08/18 02:45:09;;;;;;;1.20;0.90;;;20.10;1.00;;;;;;5118153;28;20820;-69
2022/08/18 02:47:36;;;;;;;1.40;1.00;;;20.10;1.00;;;;;;5117916;28;20514;-69
2022/08/18 02:50:06;;;;;;;1.40;1.00;;;20.00;1.00;;;;;;5118072;28;20805;-69
2022/08/18 02:52:35;;;;;;;1.47;1.00;;;20.10;1.00;;;;;;5116403;28;20492;-69
2022/08/18 02:55:02;;;;;;;1.50;1.00;;;20.20;1.00;;;;;;5117024;28;20548;-69
2022/08/18 02:57:30;;;;;;;1.30;1.00;;;20.50;1.00;;;;;;5114794;28;20988;-69
2022/08/18 02:59:57;;;;;;;1.17;0.80;;;20.50;1.00;;;;;;5116443;28;20445;-69
2022/08/18 03:02:24;;;;;;;1.20;0.83;;;20.50;1.00;;;;;;5114321;28;20452;-70
2022/08/18 03:04:51;;;;;;;1.37;0.90;;;20.60;1.00;;;;;;5115958;28;20953;-69
2022/08/18 03:07:20;;;;;;;1.60;1.07;;;20.50;1.00;;;;;;5113933;28;20453;-70
2022/08/18 03:09:47;;;;;;;1.20;1.00;;;20.30;1.00;;;;;;5116362;28;20437;-69
2022/08/18 03:12:13;;;;;;;2.00;1.07;;;20.20;1.00;;;;;;5115972;28;20480;-69
2022/08/18 03:14:40;;;;;;;1.87;1.00;;;20.10;1.00;;;;;;5117348;28;20480;-70
2022/08/18 03:17:09;;;;;;;1.30;0.90;;;20.20;1.00;;;;;;5115753;28;20949;-69
2022/08/18 03:19:36;;;;;;;1.13;0.87;;;20.20;1.00;;;;;;5117248;28;20516;-69
2022/08/18 03:22:04;;;;;;;1.37;1.27;;;20.10;1.00;;;;;;5115479;28;20452;-69
2022/08/18 03:24:33;;;;;;;1.07;0.90;;;20.00;1.00;;;;;;5117085;28;20444;-69
2022/08/18 03:27:00;;;;;;;1.23;0.90;;;19.90;1.00;;;;;;5115375;28;20457;-69
2022/08/18 03:29:28;;;;;;;1.13;0.90;;;20.10;1.00;;;;;;5115817;28;20449;-69
2022/08/18 03:31:55;;;;;;;1.30;0.83;;;20.20;1.00;;;;;;5115530;28;20487;-70
2022/08/18 03:34:22;;;;;;;1.30;0.90;;;20.30;1.00;;;;;;5117043;28;20480;-69
2022/08/18 03:36:49;;;;;;;1.90;0.90;;;20.30;1.00;;;;;;5115150;28;20453;-69
2022/08/18 03:39:18;;;;;;;1.30;1.10;;;20.30;1.00;;;;;;5117128;28;20801;-70
2022/08/18 03:41:47;;;;;;;1.60;0.90;;;20.20;1.00;;;;;;5114526;28;20499;-69
2022/08/18 03:44:15;;;;;;;1.27;0.93;;;20.20;1.00;;;;;;5116741;28;20518;-69
2022/08/18 03:46:44;;;;;;;2.53;1.10;;;20.10;1.00;;;;;;5111687;28;20444;-69
2022/08/18 03:49:11;;;;;;;2.90;1.00;;;20.00;1.00;;;;;;5111833;28;20464;-69
2022/08/18 03:51:38;;;;;;;1.27;0.90;;;20.00;1.00;;;;;;5114357;28;20509;-70
2022/08/18 03:54:06;;;;;;;1.40;1.00;;;19.90;1.00;;;;;;5116612;28;20480;-69
2022/08/18 03:56:37;;;;;;;1.30;0.90;;;19.80;1.00;;;;;;5114934;28;20523;-69
2022/08/18 03:59:08;;;;;;;1.67;1.17;;;19.80;1.00;;;;;;5117083;28;20448;-69
2022/08/18 04:01:39;;;;;;;1.60;1.00;;;19.70;8.60;;;;;;5112437;28;20487;-71
2022/08/18 04:04:09;;;;;;;1.13;0.90;;;19.50;19.70;;;;;;5110385;28;20441;-69
2022/08/18 04:06:38;;;;;;;2.00;1.20;;;19.50;28.80;;;;;;5114610;28;20472;-69
2022/08/18 04:09:08;;;;;;;1.37;1.03;;;19.50;27.80;;;;;;5116676;28;20449;-69
2022/08/18 04:11:42;;;;;;;1.20;0.97;;;19.50;29.90;;;;;;5113875;28;20487;-69
2022/08/18 04:14:10;;;;;;;1.43;1.10;;;19.50;27.90;;;;;;5116608;28;20477;-69
2022/08/18 04:16:38;;;;;;;1.47;1.10;;;19.40;32.60;;;;;;5116720;28;20452;-69
2022/08/18 04:19:05;;;;;;;1.77;1.10;;;19.40;33.30;;;;;;5115224;28;20436;-69
2022/08/18 04:21:35;;;;;;;3.33;1.50;;;19.50;27.40;;;;;;5113908;28;20898;-69
2022/08/18 04:24:03;;;;;;;1.30;1.03;;;19.50;22.10;;;;;;5115161;28;20527;-70
2022/08/18 04:26:32;;;;;;;1.77;0.93;;;19.50;22.10;;;;;;5113240;28;20852;-70
2022/08/18 04:29:00;;;;;;;1.87;1.10;;;19.50;23.20;;;;;;5115216;28;20493;-69
2022/08/18 04:31:30;;;;;;;1.17;1.00;;;19.50;21.20;;;;;;5112460;28;20455;-69
2022/08/18 04:33:58;;;;;;;2.30;1.23;;;19.50;11.80;;;;;;5119965;28;20476;-70
2022/08/18 04:36:26;;;;;;;2.10;1.20;;;19.50;19.00;;;;;;5118519;28;20437;-69
2022/08/18 04:38:53;;;;;;;1.23;1.00;;;19.40;27.90;;;;;;5120443;28;20467;-70
2022/08/18 04:41:22;;;;;;;1.70;1.10;;;19.50;25.30;;;;;;5120932;28;20440;-70
2022/08/18 04:43:51;;;;;;;1.10;1.00;;;19.60;11.30;;;;;;5118068;28;20471;-70
2022/08/18 04:46:18;;;;;;;2.50;1.00;;;19.60;2.20;;;;;;5120343;28;20543;-69
2022/08/18 04:48:47;;;;;;;3.13;1.10;;;19.70;1.00;;;;;;5117822;28;20556;-75
2022/08/18 04:51:16;;;;;;;1.50;1.10;;;19.80;1.00;;;;;;5119034;28;20854;-77
2022/08/18 04:53:45;;;;;;;1.30;1.20;;;20.00;1.00;;;;;;5117884;28;20488;-75
2022/08/18 04:56:24;;;;;;;1.90;1.00;;;19.90;1.00;;;;;;5119801;28;20903;-75
2022/08/18 04:58:52;;;;;;;2.80;1.20;;;19.80;1.00;;;;;;5119260;28;20448;-75
2022/08/18 05:01:20;;;;;;;1.40;1.10;;;19.80;1.00;;;;;;5118075;28;20451;-75
2022/08/18 05:03:50;;;;;;;2.40;1.10;;;19.80;1.00;;;;;;5117170;28;20487;-75
2022/08/18 05:06:17;;;;;;;2.87;1.20;;;19.90;1.00;;;;;;5119017;28;20452;-75
2022/08/18 05:08:45;;;;;;;1.27;1.00;;;20.00;1.00;;;;;;5118929;28;20480;-75
2022/08/18 05:11:13;;;;;;;1.40;1.00;;;20.00;1.00;;;;;;5119514;28;20484;-75
2022/08/18 05:13:41;;;;;;;1.53;1.10;;;20.00;1.00;;;;;;5117187;28;20484;-75
2022/08/18 05:16:09;;;;;;;1.60;1.00;;;20.00;1.00;;;;;;5119129;28;20977;-75
2022/08/18 05:18:38;;;;;;;1.30;1.13;;;20.00;1.00;;;;;;5115640;28;20453;-75
2022/08/18 05:21:13;;;;;;;1.53;1.10;;;20.10;1.00;;;;;;5119006;28;20448;-74
2022/08/18 05:23:40;;;;;;;1.40;1.17;;;20.10;1.00;;;;;;5117177;28;20823;-74
2022/08/18 05:26:08;;;;;;;1.23;1.03;;;20.30;1.00;;;;;;5119257;28;20445;-73
2022/08/18 05:28:36;;;;;;;4.63;1.27;;;20.50;1.00;;;;;;5117641;28;20487;-73
2022/08/18 05:31:07;;;;;;;1.83;1.10;;;20.70;1.00;;;;;;5117722;28;20456;-74
2022/08/18 05:33:35;;;;;;;2.20;1.10;;;20.80;1.00;;;;;;5116527;28;20484;-74
2022/08/18 05:36:05;;;;;;;1.50;1.10;;;20.80;1.00;;;;;;5117541;28;20747;-74
2022/08/18 05:38:42;;;;;;;2.63;1.23;;;20.80;1.00;;;;;;5117443;28;20517;-74
2022/08/18 05:41:12;;;;;;;1.80;1.00;;;20.70;1.00;;;;;;5118075;28;20452;-74
2022/08/18 05:43:40;;;;;;;1.67;1.10;;;20.70;1.00;;;;;;5114380;28;20452;-74
2022/08/18 05:46:10;;;;;;;1.30;1.00;;;20.60;1.00;;;;;;5118595;28;20448;-74
2022/08/18 05:48:38;;;;;;;1.33;1.07;;;20.50;1.00;;;;;;5116141;28;20745;-74
2022/08/18 05:51:14;;;;;;;1.47;1.20;;;20.50;1.00;;;;;;5117598;28;20449;-74
2022/08/18 05:56:48;;;;;;;1.70;1.50;;;20.90;1.00;;;;;;5116048;28;20737;-73
2022/08/18 05:59:21;;;;;;;2.13;1.00;;;21.10;1.00;;;;;;5118709;28;20559;-75
2022/08/18 06:01:53;;;;;;;1.40;1.10;;;21.10;1.00;;;;;;5114649;28;20726;-74
2022/08/18 06:04:28;;;;;;;5.70;3.87;;;21.30;99.90;;;;;;5118602;28;20713;-76
2022/08/18 06:06:57;;;;;;;1.63;1.30;;;21.30;1.00;;;;;;5115215;28;20479;-75
2022/08/18 06:09:34;;;;;;;1.70;1.27;;;21.40;99.90;;;;;;5117615;28;20441;-75
2022/08/18 06:12:09;;;;;;;1.53;1.23;;;21.40;99.90;;;;;;5115631;28;20468;-75
2022/08/18 06:14:40;;;;;;;1.87;1.10;;;21.50;99.90;;;;;;5116328;28;20583;-75
2022/08/18 06:17:19;;;;;;;2.17;1.50;;;21.50;99.90;;;;;;5115656;28;20459;-75
2022/08/18 06:19:52;;;;;;;1.40;1.20;;;21.50;99.90;;;;;;5115043;28;20505;-76
2022/08/18 06:22:30;;;;;;;1.40;1.10;;;21.40;99.90;;;;;;5113090;28;20548;-76
2022/08/18 06:25:06;;;;;;;1.50;1.10;;;21.40;99.90;;;;;;5114268;28;20484;-76
2022/08/18 06:27:40;;;;;;;1.50;1.10;;;21.50;99.90;;;;;;5115946;28;20485;-76
2022/08/18 06:30:13;;;;;;;2.87;1.20;;;21.70;1.00;;;;;;5117548;28;20535;-76
2022/08/18 06:32:55;;;;;;;3.03;1.40;;;22.00;99.90;;;;;;5116154;28;20480;-76
2022/08/18 06:35:35;;;;;;;2.77;1.10;;;22.00;1.00;;;;;;5117273;28;20452;-76
2022/08/18 06:41:17;;;;;;;1.33;1.17;;;22.00;1.00;;;;;;5113626;28;20523;-76
2022/08/18 06:43:55;;;;;;;1.20;1.03;;;22.00;15.60;;;;;;5112440;28;21085;-76
2022/08/18 06:46:26;;;;;;;1.70;1.20;;;22.10;1.00;;;;;;5115809;28;20444;-76
2022/08/18 06:48:56;;;;;;;1.33;1.10;;;22.10;60.80;;;;;;5115753;28;20469;-75
2022/08/18 06:51:28;;;;;;;1.37;1.07;;;22.20;1.00;;;;;;5115869;28;20472;-75
2022/08/18 06:54:00;;;;;;;1.13;1.00;;;22.30;61.50;;;;;;5114535;28;20534;-75
2022/08/18 06:56:36;;;;;;;1.63;1.20;;;22.40;1.00;;;;;;5115309;28;20448;-75
2022/08/18 06:59:19;;;;;;;1.97;1.00;;;22.60;99.90;;;;;;5113967;28;20529;-75
2022/08/18 07:01:50;;;;;;;1.10;0.90;;;22.60;99.90;;;;;;5114555;28;20458;-75
2022/08/18 07:04:42;;;;;;;1.50;1.10;;;22.70;1.00;;;;;;5103709;28;20461;-74
2022/08/18 07:07:19;;;;;;;1.77;1.17;;;22.70;1.00;;;;;;5116621;28;20441;-75
2022/08/18 07:09:47;;;;;;;2.50;1.37;;;22.50;99.90;;;;;;5112202;28;20459;-75
2022/08/18 07:12:23;;;;;;;1.07;0.90;;;22.60;99.90;;;;;;5116827;28;20450;-75
2022/08/18 07:14:52;;;;;;;1.60;1.20;;;22.70;95.50;;;;;;5115441;28;20487;-74
2022/08/18 07:17:23;;;;;;;1.63;1.10;;;22.90;1.00;;;;;;5115575;28;20547;-75
2022/08/18 07:19:59;;;;;;;1.13;1.00;;;23.10;99.90;;;;;;5111882;28;20520;-75
2022/08/18 07:22:26;;;;;;;2.60;1.13;;;23.20;99.90;;;;;;5114368;28;20447;-75
2022/08/18 07:24:57;;;;;;;2.10;1.10;;;23.30;1.00;;;;;;5112858;28;20529;-75
2022/08/18 07:27:44;;;;;;;1.80;1.23;;;23.40;1.00;;;;;;5115805;28;20445;-75
2022/08/18 07:30:20;;;;;;;2.23;1.10;;;23.40;1.00;;;;;;5118436;28;20456;-75
2022/08/18 07:32:54;;;;;;;1.63;1.20;;;23.30;1.00;;;;;;5130162;28;20444;-75
2022/08/18 07:35:28;;;;;;;1.20;1.03;;;23.10;1.00;;;;;;5112820;28;20576;-75
2022/08/18 07:38:00;;;;;;;1.30;0.93;;;23.20;1.00;;;;;;5115511;28;20437;-75
2022/08/18 07:40:33;;;;;;;2.43;1.07;;;23.20;1.00;;;;;;5113284;28;20452;-76
2022/08/18 07:43:06;;;;;;;1.20;1.00;;;23.00;4.80;;;;;;5114662;28;20501;-76
2022/08/18 07:45:37;;;;;;;2.70;1.20;;;23.00;36.60;;;;;;5111798;28;20455;-76
2022/08/18 07:48:10;;;;;;;1.60;1.10;;;22.90;99.90;;;;;;5115699;28;20433;-76
2022/08/18 07:50:44;;;;;;;1.60;1.10;;;22.80;99.90;;;;;;5114769;28;20486;-77
2022/08/18 07:53:22;;;;;;;1.20;1.00;;;22.60;1.00;;;;;;5114124;28;20444;-75
2022/08/18 07:55:55;;;;;;;2.33;1.13;;;22.60;1.00;;;;;;5113061;28;20451;-76
2022/08/18 07:58:31;;;;;;;2.77;1.30;;;22.70;1.00;;;;;;5114209;28;20868;-74
2022/08/18 08:01:04;;;;;;;1.50;1.30;;;22.80;1.00;;;;;;5112589;28;20456;-74
2022/08/18 08:03:43;;;;;;;1.20;1.07;;;22.80;1.00;;;;;;5095380;28;20440;-75
2022/08/18 08:06:19;;;;;;;1.10;0.93;;;22.90;1.00;;;;;;5101887;28;20457;-74
2022/08/18 08:08:54;;;;;;;1.50;1.10;;;23.00;99.90;;;;;;5110284;28;20502;-76
2022/08/18 08:11:28;;;;;;;3.07;2.77;;;23.00;99.90;;;;;;5108349;28;20476;-74
2022/08/18 08:14:30;;;;;;;1.67;1.50;;;23.10;99.90;;;;;;5103598;28;20939;-75
2022/08/18 08:17:04;;;;;;;1.37;1.10;;;23.00;99.90;;;;;;5105618;28;20742;-75
2022/08/18 08:19:55;;;;;;;2.00;1.37;;;22.90;99.90;;;;;;5105406;28;20460;-75
2022/08/18 08:22:31;;;;;;;1.53;1.30;;;22.90;1.00;;;;;;5113243;28;20480;-75
2022/08/18 08:25:05;;;;;;;1.33;1.10;;;22.80;1.00;;;;;;5113735;28;20452;-76
2022/08/18 08:27:41;;;;;;;1.50;1.30;;;22.70;1.00;;;;;;5109593;28;20438;-77
2022/08/18 08:30:13;;;;;;;1.30;1.20;;;22.70;99.90;;;;;;5096127;28;20207;-76
2022/08/18 08:32:47;;;;;;;1.50;1.03;;;22.70;99.90;;;;;;5106699;28;20808;-78
2022/08/18 08:35:17;;;;;;;1.57;1.00;;;22.80;99.90;;;;;;5109417;28;20821;-77
2022/08/18 08:37:50;;;;;;;2.83;1.30;;;22.80;1.00;;;;;;5113399;28;20445;-77
2022/08/18 08:40:20;;;;;;;1.40;1.10;;;22.90;1.00;;;;;;5114369;28;20904;-78
2022/08/18 08:42:52;;;;;;;1.80;1.30;;;23.00;1.00;;;;;;5112520;28;20523;-78
2022/08/18 08:45:25;;;;;;;1.50;1.03;;;23.30;1.00;;;;;;5115321;28;20211;-79
2022/08/18 08:47:59;;;;;;;1.67;1.30;;;23.50;99.90;;;;;;5115564;28;20465;-78
2022/08/18 08:50:29;;;;;;;1.77;1.20;;;23.60;97.10;;;;;;5113926;28;20444;-79
2022/08/18 08:53:02;;;;;;;3.23;1.30;;;23.70;1.00;;;;;;5115594;28;20897;-79
2022/08/18 08:55:32;;;;;;;1.50;1.10;;;23.80;1.00;;;;;;5111042;28;20984;-79
2022/08/18 08:58:13;;;;;;;1.30;1.10;;;23.80;57.20;;;;;;5115586;28;20985;-80
2022/08/18 09:00:43;;;;;;;1.50;1.30;;;23.90;1.00;;;;;;5111788;28;20548;-78
2022/08/18 09:03:23;;;;;;;2.60;1.30;;;23.90;1.00;;;;;;5115277;28;20513;-80
2022/08/18 09:06:00;;;;;;;1.30;1.00;;;24.00;1.00;;;;;;5111937;28;20495;-75
2022/08/18 09:08:47;;;;;;;1.73;1.37;;;24.20;1.00;;;;;;5113017;28;20437;-75
2022/08/18 09:11:38;;;;;;;3.30;3.10;;;24.40;1.00;;;;;;5111559;28;20472;-75
2022/08/18 09:14:30;;;;;;;1.77;1.23;;;24.40;1.00;;;;;;5115225;28;20476;-76
2022/08/18 09:17:15;;;;;;;1.37;1.07;;;24.50;1.00;;;;;;5114726;28;20542;-75
2022/08/18 09:19:57;;;;;;;1.30;1.10;;;24.60;1.00;;;;;;5101810;28;20472;-73
2022/08/18 09:22:36;;;;;;;3.40;1.27;;;24.70;1.00;;;;;;5095947;28;20464;-76
2022/08/18 09:25:10;;;;;;;1.53;1.20;;;24.80;1.00;;;;;;5098081;28;20532;-75
2022/08/18 09:27:41;;;;;;;1.23;1.00;;;24.80;1.00;;;;;;5095034;28;20457;-75
2022/08/18 09:30:30;;;;;;;1.50;1.20;;;24.70;1.00;;;;;;5096945;28;20533;-75
2022/08/18 09:33:12;;;;;;;2.90;1.20;;;24.60;1.00;;;;;;5096006;28;20453;-76
2022/08/18 09:36:12;;;;;;;1.80;1.10;;;24.70;1.00;;;;;;5097313;28;20484;-75
2022/08/18 09:41:46;;;;;;;1.50;1.10;;;24.80;1.00;;;;;;5091616;28;20522;-75
2022/08/18 09:44:35;;;;;;;2.23;1.60;;;24.80;1.00;;;;;;5094361;28;20456;-75
2022/08/18 09:47:03;;;;;;;1.70;1.33;;;25.00;1.00;;;;;;5089672;28;20552;-74
2022/08/18 09:49:47;;;;;;;1.67;1.30;;;25.00;1.00;;;;;;5094841;28;20453;-74
2022/08/18 09:52:48;;;;;;;1.80;1.60;;;25.00;1.00;;;;;;5086878;28;20496;-74
2022/08/18 09:55:39;;;;;;;1.30;1.10;;;25.30;99.90;;;;;;5093739;28;20485;-75
2022/08/18 09:58:43;;;;;;;1.77;1.53;;;25.70;99.90;;;;;;5094898;28;20453;-74
2022/08/18 10:01:38;;;;;;;1.40;1.20;;;25.60;99.90;;;;;;5063548;28;20453;-74
2022/08/18 10:04:28;;;;;;;2.40;1.20;;;25.80;99.90;;;;;;5078652;28;20457;-74
2022/08/18 10:07:18;;;;;;;2.00;1.50;;;25.70;99.90;;;;;;5092237;28;20461;-74
2022/08/18 10:10:09;;;;;;;1.50;1.30;;;25.80;99.90;;;;;;5085806;28;20900;-74
2022/08/18 10:13:11;;;;;;;2.10;1.40;;;25.90;99.90;;;;;;5084533;28;20878;-73
2022/08/18 10:15:59;;;;;;;1.97;1.40;;;25.60;99.90;;;;;;5093727;28;20538;-74
2022/08/18 10:18:52;;;;;;;1.63;1.40;;;25.70;99.90;;;;;;5087034;28;20441;-73
2022/08/18 10:21:21;;;;;;;1.90;1.57;;;26.20;99.90;;;;;;5093899;28;20917;-73
2022/08/18 10:24:29;;;;;;;1.60;1.50;;;26.30;89.10;;;;;;5098779;28;20881;-70
2022/08/18 10:27:04;;;;;;;1.87;1.40;;;26.30;46.10;;;;;;5004916;28;20456;-71
2022/08/18 10:29:50;;;;;;;2.23;1.40;;;26.30;44.20;;;;;;5094557;28;20448;-71
2022/08/18 10:32:36;;;;;;;3.37;1.70;;;26.40;28.90;;;;;;5093308;28;20449;-73
2022/08/18 10:35:26;;;;;;;1.90;1.63;;;26.30;28.40;;;;;;5097257;28;20842;-72
2022/08/18 10:37:54;;;;;;;1.80;1.70;;;26.20;50.80;;;;;;5103029;28;20452;-71
2022/08/18 10:40:24;;;;;;;1.93;1.60;;;26.40;7.20;;;;;;5099726;28;20512;-71
2022/08/18 10:42:59;;;;;;;2.07;1.40;;;26.40;1.00;;;;;;5108530;28;20832;-71
2022/08/18 10:45:30;;;;;;;2.87;1.70;;;26.70;1.00;;;;;;5108338;28;20433;-71
2022/08/18 10:48:09;;;;;;;2.47;1.50;;;26.80;1.00;;;;;;5103853;28;20440;-71
2022/08/18 10:50:44;;;;;;;5.53;1.60;;;27.40;1.00;;;;;;5093801;28;20881;-71
2022/08/18 10:53:23;;;;;;;2.07;1.87;;;27.40;1.00;;;;;;5095553;28;20550;-71
2022/08/18 10:55:59;;;;;;;2.30;2.10;;;27.50;1.00;;;;;;5097987;28;20491;-70
2022/08/18 10:58:46;;;;;;;3.40;2.00;;;27.30;1.00;;;;;;5115673;28;20544;-71
2022/08/18 11:01:25;;;;;;;2.10;1.40;;;27.30;1.00;;;;;;5099032;28;20546;-72
2022/08/18 11:04:02;;;;;;;1.60;1.40;;;27.60;1.00;;;;;;5079313;28;20908;-71
2022/08/18 11:06:37;;;;;;;1.73;1.60;;;28.00;1.00;;;;;;5075135;28;20486;-71
2022/08/18 11:09:05;;;;;;;1.73;1.57;;;27.80;1.00;;;;;;5109027;28;20468;-71
2022/08/18 11:11:36;;;;;;;1.90;1.47;;;27.90;1.00;;;;;;5120564;27;20467;-70
2022/08/18 11:14:15;;;;;;;2.57;1.70;;;28.20;1.00;;;;;;5134977;27;20540;-71
2022/08/18 11:16:52;;;;;;;1.87;1.77;;;27.90;1.00;;;;;;5134512;27;20463;-71
2022/08/18 11:19:21;;;;;;;3.13;2.07;;;27.80;1.00;;;;;;5133232;27;20451;-71
2022/08/18 11:21:50;;;;;;;2.70;1.70;;;27.20;1.00;;;;;;5134502;27;20440;-71
2022/08/18 11:24:20;;;;;;;1.73;1.20;;;26.90;1.00;;;;;;5133455;27;20599;-71
2022/08/18 11:26:52;;;;;;;2.03;1.70;;;27.10;1.00;;;;;;5134801;27;20447;-71
2022/08/18 11:29:31;;;;;;;1.73;1.53;;;27.30;1.00;;;;;;5130053;27;20804;-71
2022/08/18 11:32:02;;;;;;;2.40;1.80;;;27.60;1.00;;;;;;5134026;27;20952;-71
2022/08/18 11:34:35;;;;;;;2.20;2.00;;;27.60;1.00;;;;;;5132351;27;20488;-71
2022/08/18 11:37:08;;;;;;;2.73;2.20;;;27.50;1.00;;;;;;5134064;27;20463;-71
2022/08/18 11:39:49;;;;;;;2.43;1.93;;;27.50;1.00;;;;;;5132189;27;20450;-71
2022/08/18 11:42:19;;;;;;;2.47;2.27;;;27.30;1.00;;;;;;5134694;27;20450;-71
2022/08/18 11:44:46;;;;;;;2.20;2.00;;;27.50;1.00;;;;;;5134233;27;20540;-73
2022/08/18 11:47:17;;;;;;;1.93;1.77;;;27.40;1.00;;;;;;5135391;27;20760;-71
2022/08/18 11:49:56;;;;;;;1.43;1.30;;;27.40;1.00;;;;;;5130859;27;20528;-71
2022/08/18 11:52:27;;;;;;;1.80;1.70;;;27.60;1.00;;;;;;5133478;27;20446;-71
2022/08/18 11:55:00;;;;;;;1.97;1.73;;;27.50;1.00;;;;;;5133654;27;20751;-70
2022/08/18 11:57:31;;;;;;;1.80;1.70;;;27.60;1.00;;;;;;5132795;27;20902;-71
2022/08/18 11:59:58;;;;;;;3.00;1.93;;;27.80;1.00;;;;;;5131930;27;20544;-72
2022/08/18 12:02:26;;;;;;;2.73;2.47;;;28.20;1.00;;;;;;5135686;27;20497;-71
2022/08/18 12:04:56;;;;;;;2.43;2.23;;;27.90;1.00;;;;;;5131982;27;20796;-71
2022/08/18 12:07:29;;;;;;;1.77;1.67;;;28.10;1.00;;;;;;5134737;27;20450;-71
2022/08/18 12:10:16;;;;;;;3.43;1.93;;;28.30;1.00;;;;;;5131830;27;20579;-72
2022/08/18 12:12:48;;;;;;;3.13;2.50;;;28.30;1.00;;;;;;5134149;27;20458;-71
2022/08/18 12:15:27;;;;;;;1.60;1.50;;;28.30;1.00;;;;;;5131405;28;20805;-70
2022/08/18 12:17:54;;;;;;;2.27;2.07;;;28.20;1.00;;;;;;5133640;28;20458;-70
2022/08/18 12:20:24;;;;;;;3.20;2.77;;;28.20;1.00;;;;;;5129308;28;20579;-71
2022/08/18 12:22:55;;;;;;;2.33;2.13;;;28.40;1.00;;;;;;5133152;28;20504;-71
2022/08/18 12:25:22;;;;;;;2.00;1.80;;;28.20;1.00;;;;;;5125437;28;20476;-71
2022/08/18 12:27:50;;;;;;;3.00;2.80;;;28.60;1.00;;;;;;5113361;28;20441;-70
2022/08/18 12:30:17;;;;;;;2.20;2.00;;;28.90;1.00;;;;;;5111150;28;20477;-71
2022/08/18 12:32:44;;;;;;;3.07;2.77;;;28.90;1.00;;;;;;5114535;28;20469;-71
2022/08/18 12:35:12;;;;;;;4.10;2.07;;;28.80;1.00;;;;;;5110760;28;20495;-71
2022/08/18 12:37:43;;;;;;;2.47;1.87;;;28.70;1.00;;;;;;5095906;28;20499;-71
2022/08/18 12:40:12;;;;;;;2.10;2.00;;;28.60;1.00;;;;;;5095498;28;20552;-71
2022/08/18 12:42:39;;;;;;;3.20;1.60;;;28.40;1.00;;;;;;5086222;28;20449;-71
2022/08/18 12:45:09;;;;;;;3.70;1.80;;;28.50;1.00;;;;;;5091639;28;20528;-71
2022/08/18 12:47:39;;;;;;;3.50;1.53;;;28.60;1.00;;;;;;5111786;28;21048;-73
2022/08/18 12:50:07;;;;;;;2.47;1.40;;;28.30;1.00;;;;;;5096807;28;20854;-71
2022/08/18 12:52:35;;;;;;;2.67;1.40;;;28.40;1.00;;;;;;5112040;28;20448;-70
2022/08/18 12:55:02;;;;;;;2.30;2.10;;;28.50;1.00;;;;;;5101511;28;20758;-71
2022/08/18 12:57:29;;;;;;;2.33;2.13;;;28.30;1.00;;;;;;5114874;28;20448;-71
2022/08/18 12:59:56;;;;;;;2.90;1.90;;;28.00;1.00;;;;;;5104088;28;20457;-71
2022/08/18 13:02:24;;;;;;;1.87;1.77;;;27.90;1.00;;;;;;5113965;28;20432;-71
2022/08/18 13:04:51;;;;;;;2.17;1.57;;;27.70;1.00;;;;;;5102474;28;20745;-70
2022/08/18 13:07:18;;;;;;;2.17;1.60;;;27.50;1.00;;;;;;5111951;28;20505;-71
2022/08/18 13:09:45;;;;;;;2.90;2.10;;;27.50;1.00;;;;;;5102960;28;20539;-71
2022/08/18 13:12:14;;;;;;;2.10;1.80;;;27.50;1.00;;;;;;5113824;28;20946;-71
2022/08/18 13:14:42;;;;;;;2.90;1.73;;;27.70;1.00;;;;;;5113021;28;20456;-71
2022/08/18 13:17:09;;;;;;;1.60;1.50;;;28.00;1.00;;;;;;5115826;28;20934;-71
2022/08/18 13:19:38;;;;;;;1.73;1.63;;;28.40;1.00;;;;;;5112774;28;20918;-72
2022/08/18 13:22:05;;;;;;;2.17;1.20;;;28.60;1.00;;;;;;5114988;28;20471;-72
2022/08/18 13:24:32;;;;;;;2.20;1.70;;;28.70;1.00;;;;;;5113251;28;20456;-71
2022/08/18 13:26:59;;;;;;;1.60;1.50;;;28.70;1.00;;;;;;5117456;28;20484;-71
2022/08/18 13:29:26;;;;;;;1.87;1.77;;;28.90;1.00;;;;;;5114852;28;20460;-70
2022/08/18 13:31:56;;;;;;;1.97;1.77;;;29.10;1.00;;;;;;5117770;28;20774;-71
2022/08/18 13:34:24;;;;;;;1.63;1.53;;;29.20;1.00;;;;;;5115672;28;20467;-71
2022/08/18 13:36:52;;;;;;;1.80;1.70;;;29.10;1.00;;;;;;5118119;28;20440;-71